Date,TemperatureHighF,TemperatureAvgF,TemperatureLowF,DewpointHighF,DewpointAvgF,DewpointLowF,HumidityHigh,HumidityAvg,HumidityLow,PressureMaxIn,PressureMinIn,WindSpeedMaxMPH,WindSpeedAvgMPH,GustSpeedMaxMPH,PrecipitationSumIn
2013-1-2,34.4,29.4,24.5,26.6,24.2,21.7,90,81,69,30.33,30.24,3,1,5,0.00
2013-1-3,41.8,32.7,19.1,28.8,24.7,17.2,94,74,55,30.41,30.36,4,2,9,0.00
2013-1-4,45.5,35.7,23.1,32.0,27.7,21.1,93,75,48,30.52,30.43,8,4,13,0.00
2013-1-7,43.4,33.0,18.8,31.4,26.6,16.6,94,78,61,30.52,30.32,5,2,8,0.00
2013-1-8,58.9,44.8,27.3,39.2,34.9,24.8,91,70,44,30.37,30.25,8,3,13,0.00
2013-1-9,54.6,49.8,46.1,50.5,46.7,43.9,94,89,84,30.44,30.37,5,2,6,0.04
2013-1-10,46.8,46.6,46.5,44.0,43.9,43.7,91,90,89,30.41,30.39,10,10,14,0.23
2013-1-16,32.8,31.9,31.1,30.3,29.5,28.7,94,91,86,30.19,30.13,3,0,3,0.00
2013-1-17,47.7,35.7,29.2,37.8,30.7,26.2,94,82,66,30.50,30.16,8,3,16,0.01
2013-1-18,50.3,35.4,21.1,33.4,26.1,18.8,93,71,42,30.62,30.38,7,2,13,0.00
2013-1-19,57.9,45.8,34.4,35.7,31.8,26.3,78,60,39,30.38,30.13,16,8,21,0.00
2013-1-20,49.2,40.6,25.9,36.0,27.5,18.2,86,61,35,30.32,30.16,9,2,11,0.00
2013-1-21,36.5,28.0,21.9,21.0,16.5,10.4,83,63,42,30.38,30.24,7,2,12,0.00
2013-1-22,27.4,23.0,16.3,11.1,6.4,3.1,68,49,38,30.51,30.37,5,2,8,0.00
2013-1-23,49.9,34.3,16.5,32.5,22.9,8.2,85,64,44,30.44,30.18,11,3,15,0.00
2013-1-24,35.5,29.2,23.6,30.0,16.0,8.6,85,59,43,30.58,30.27,10,6,15,0.00
2013-1-25,34.0,29.7,28.3,31.9,23.1,10.6,93,78,45,30.34,30.14,6,2,9,0.18
2013-1-30,56.4,54.6,52.6,52.4,51.3,48.5,95,89,78,29.56,29.46,16,8,23,1.59
2013-2-1,27.1,24.9,23.5,19.9,17.3,13.3,81,73,56,30.48,30.39,3,0,5,0.02
2013-2-2,42.4,32.7,23.6,34.4,27.3,17.7,92,81,59,30.39,30.13,12,4,15,0.00
2013-2-3,42.3,35.2,24.2,33.8,28.8,21.3,91,78,55,30.23,30.04,9,3,13,0.01
2013-2-4,43.0,29.1,24.4,33.5,25.9,21.6,92,88,71,30.17,30.03,6,1,9,0.00
2013-2-5,52.8,44.5,42.7,42.4,40.3,34.2,91,86,51,30.04,29.95,3,1,5,0.00
2013-2-7,57.0,56.2,55.4,46.4,46.0,45.7,71,69,67,29.91,29.90,2,0,3,0.00
2013-2-8,41.5,39.4,34.4,37.4,33.7,28.9,88,80,74,30.38,30.11,7,4,14,0.36
2013-2-11,49.5,45.2,42.9,35.5,32.9,30.2,67,62,53,30.15,30.07,10,6,14,0.00
2013-2-12,49.4,45.0,29.4,36.8,34.1,27.9,94,66,53,30.19,29.86,8,3,10,0.00
2013-2-13,43.3,39.3,36.9,36.9,35.2,33.3,93,85,68,29.97,29.78,8,3,11,0.17
2013-2-14,60.1,50.2,34.5,43.0,37.3,32.6,93,63,41,30.04,29.97,11,4,15,0.01
2013-2-15,49.2,43.0,34.6,36.6,31.0,22.3,83,63,49,30.22,30.04,7,4,14,0.00
2013-2-16,37.0,35.9,34.2,24.0,17.4,10.7,65,48,36,30.24,30.20,8,5,12,0.00
2013-2-18,63.9,55.3,41.7,44.9,38.3,31.5,87,55,33,30.15,29.79,18,12,30,0.25
2013-2-19,44.7,38.9,29.7,29.9,23.4,18.4,83,55,37,30.27,30.06,11,6,17,0.01
2013-2-20,34.7,29.1,22.4,20.3,19.2,16.3,77,67,50,30.35,30.30,6,3,8,0.00
2013-2-21,38.9,35.3,26.8,33.8,26.9,19.8,94,72,54,30.28,29.94,17,9,20,0.74
2013-2-22,56.1,45.8,35.7,45.8,39.8,32.3,92,80,63,30.08,29.98,12,6,15,0.01
2013-2-23,45.4,42.1,36.9,32.4,30.6,28.6,75,64,56,30.04,29.98,4,1,6,0.00
2013-2-24,51.2,40.8,29.6,32.3,28.8,25.6,85,64,46,30.17,30.04,6,4,8,0.00
2013-2-25,59.0,52.0,36.1,36.5,34.1,27.4,73,51,41,30.06,29.68,15,11,19,0.00
2013-2-26,53.5,44.3,39.1,49.4,40.7,35.3,95,87,78,29.70,29.39,16,10,21,0.77
2013-2-27,38.7,37.6,36.8,34.2,32.9,32.0,89,83,79,29.90,29.84,14,10,18,0.00
2013-3-1,40.0,36.7,33.6,34.5,33.2,32.1,94,87,75,30.10,30.06,5,3,9,0.10
2013-3-2,33.5,32.0,31.1,30.3,28.6,26.2,94,87,79,30.19,30.10,7,4,11,0.04
2013-3-4,59.4,50.0,34.4,39.8,31.2,22.9,71,49,37,30.15,29.84,7,3,11,0.01
2013-3-5,51.6,42.3,35.8,50.8,39.7,32.0,97,90,73,29.96,29.74,13,6,19,0.68
2013-3-6,40.2,35.1,30.1,29.9,27.7,25.4,84,74,63,30.37,30.24,9,4,18,0.00
2013-3-7,41.1,35.3,31.1,31.8,28.3,25.7,83,76,67,30.45,30.36,6,3,9,0.00
2013-3-8,54.1,46.0,34.2,36.7,32.4,29.1,84,60,41,30.48,30.32,9,6,15,0.00
2013-3-9,65.6,62.2,60.2,41.1,36.6,33.0,46,39,31,30.14,30.07,7,3,11,0.00
2013-3-10,58.6,57.2,56.6,37.8,37.4,36.6,49,48,44,30.01,29.98,8,7,12,0.00
2013-3-11,46.0,43.9,40.6,43.5,40.9,38.0,91,89,85,29.86,29.78,12,8,14,1.28
2013-3-25,35.7,33.4,31.6,30.9,29.7,27.8,94,86,77,30.18,29.92,10,6,18,0.05
2013-3-26,38.1,34.6,31.4,30.8,29.6,28.7,91,82,72,30.33,30.24,6,4,9,0.08
2013-3-28,59.5,52.3,43.3,40.5,36.7,30.2,78,56,41,30.42,30.31,3,1,7,0.01
2013-3-29,55.2,48.7,43.4,48.9,45.1,38.3,95,88,75,30.34,30.22,5,1,8,0.50
2013-3-30,53.7,50.4,43.8,51.3,47.4,41.8,97,90,79,30.23,29.93,6,2,11,0.34
2013-3-31,61.7,53.5,44.3,53.2,49.6,42.3,97,87,60,29.98,29.90,10,2,12,0.04
2013-4-1,58.5,49.2,37.7,45.9,38.8,27.4,96,69,51,30.21,29.93,6,2,9,0.00
2013-4-2,49.1,42.4,37.0,29.5,26.3,21.3,73,54,37,30.33,30.21,6,1,9,0.00
2013-4-3,53.2,44.6,33.2,31.0,25.7,21.7,69,48,30,30.37,30.23,13,6,18,0.00
2013-4-4,45.6,42.9,39.1,43.9,36.0,26.0,95,78,50,30.23,30.04,5,2,8,0.33
2013-4-5,69.1,52.0,33.1,42.8,38.4,32.1,97,66,31,30.17,30.06,5,1,9,0.01
2013-4-6,76.3,58.4,40.2,45.2,40.7,37.2,91,57,29,30.14,29.93,11,4,14,0.00
2013-4-7,76.9,65.3,58.7,54.0,48.3,40.1,69,55,38,30.04,29.95,13,6,19,0.00
2013-4-8,78.3,66.6,56.9,58.5,53.2,47.9,78,63,43,29.99,29.90,14,5,20,0.00
2013-4-9,78.2,67.6,56.9,64.6,59.8,52.2,92,77,62,30.08,29.95,10,3,17,0.00
2013-4-10,86.3,74.9,65.9,64.8,61.1,56.4,83,64,43,30.00,29.74,14,6,17,0.00
2013-4-11,75.3,64.7,55.7,61.4,59.6,53.6,96,86,52,29.77,29.57,8,3,13,1.97
2013-4-12,61.3,53.5,39.1,47.7,42.0,36.4,91,66,49,29.91,29.87,14,9,18,0.01
2013-4-13,65.1,58.1,41.7,46.6,41.6,36.6,86,55,44,30.14,30.02,4,2,7,0.00
2013-4-15,81.8,74.1,54.7,62.3,58.1,52.1,91,59,45,29.98,29.88,7,4,12,0.00
2013-4-16,81.2,74.3,66.4,69.6,66.8,61.8,85,78,68,30.10,30.03,9,4,13,0.00
2013-4-17,88.6,80.9,65.8,70.9,66.3,62.1,95,63,44,30.11,29.91,12,6,16,0.00
2013-4-18,83.2,78.1,71.8,66.5,63.7,60.7,82,62,51,29.86,29.65,14,10,22,0.00
2013-4-19,46.9,44.5,42.3,37.5,35.2,33.2,81,70,60,30.06,29.90,14,8,18,0.42
2013-4-20,61.1,53.6,41.8,40.5,36.6,32.3,89,54,36,30.35,30.26,5,2,13,0.00
2013-4-21,63.2,63.0,62.7,41.4,37.3,33.2,45,39,33,30.32,30.30,7,6,10,0.00
2013-4-22,72.3,63.3,46.0,53.3,46.4,39.4,79,56,35,30.29,30.09,6,2,9,0.00
2013-4-23,74.3,66.8,53.9,55.8,53.9,48.9,84,64,51,30.11,29.92,12,8,17,0.00
2013-4-24,49.1,45.8,43.2,44.5,41.6,40.2,93,85,73,30.24,29.92,10,5,13,0.57
2013-4-25,65.5,59.2,33.6,45.3,40.8,32.3,95,52,38,30.42,30.33,6,2,8,0.01
2013-4-26,55.0,52.6,47.3,49.9,46.7,40.4,92,81,66,30.48,30.35,7,2,10,0.31
2013-4-27,59.2,57.7,55.0,57.6,56.1,53.8,97,94,92,30.18,30.01,6,4,10,1.25
2013-4-28,56.8,54.5,50.6,54.8,52.4,49.0,95,93,88,29.98,29.96,6,2,10,0.21
2013-4-29,74.8,66.9,49.2,59.5,54.8,46.5,98,67,38,30.06,29.92,2,1,7,0.01
2013-4-30,80.5,73.1,52.5,61.9,57.3,50.8,94,60,44,30.03,29.95,6,2,10,0.00
2013-5-1,79.7,74.5,58.1,65.5,61.2,53.6,86,64,55,30.11,30.03,6,2,8,0.00
2013-5-2,77.3,70.3,58.4,62.8,59.4,56.6,94,70,51,30.17,30.05,5,1,10,0.01
2013-5-3,76.0,68.2,50.1,60.7,56.6,47.9,92,68,51,29.99,29.81,12,5,15,0.08
2013-5-4,50.2,45.3,43.1,43.2,42.2,41.3,95,89,72,30.00,29.94,7,4,10,0.87
2013-5-5,58.4,57.4,56.6,52.3,51.5,50.8,82,80,78,29.87,29.86,3,2,6,0.00
2013-5-6,69.5,60.3,52.3,57.9,53.6,49.3,96,80,52,29.87,29.84,6,2,9,0.10
2013-5-7,72.1,64.7,50.9,61.6,56.6,50.1,98,77,60,30.03,29.97,4,2,7,0.01
2013-5-8,80.8,73.2,57.3,62.4,58.8,54.9,95,63,43,30.07,30.00,4,2,7,0.01
2013-5-9,80.3,73.7,58.2,66.0,62.1,56.5,95,68,52,30.07,29.96,10,5,14,0.00
2013-5-10,63.6,63.2,62.8,62.3,62.0,61.6,96,96,95,29.95,29.93,4,2,5,0.56
2013-5-13,71.0,67.6,61.8,46.1,39.3,35.5,47,36,29,30.29,30.17,8,2,10,0.00
2013-5-14,85.7,76.2,53.2,62.4,57.5,45.9,77,54,39,30.13,29.96,14,8,20,0.00
2013-5-15,84.8,75.9,66.1,61.2,55.6,46.4,73,52,29,30.08,29.95,14,7,22,0.00
2013-5-16,66.8,65.9,65.2,57.8,57.5,57.1,75,74,73,29.95,29.95,5,4,7,0.00
2013-5-17,69.0,68.1,67.0,66.0,65.1,64.2,93,90,87,30.01,29.96,4,3,8,0.23
2013-5-18,83.0,74.9,65.9,69.2,67.1,65.0,98,78,60,30.01,29.95,4,2,7,0.01
2013-5-20,86.5,78.4,68.5,72.4,70.3,67.0,95,77,58,30.00,29.92,8,5,13,0.00
2013-5-21,78.2,69.6,65.2,69.5,65.7,62.5,95,88,69,29.99,29.85,12,4,18,0.75
2013-5-22,75.8,71.0,63.6,68.6,65.6,62.3,96,83,71,29.87,29.81,11,7,14,0.06
2013-5-23,72.8,69.1,62.6,61.4,57.8,54.1,89,68,58,30.02,29.97,8,4,10,0.00
2013-5-24,71.1,62.5,52.3,52.8,49.9,44.6,86,65,40,30.36,30.28,4,2,12,0.00
2013-5-25,76.5,67.4,47.6,54.2,49.6,44.9,96,57,35,30.38,30.23,3,1,7,0.00
2013-5-27,84.2,77.1,62.3,64.9,61.5,57.9,86,60,46,30.13,30.01,13,6,18,0.00
2013-5-28,86.7,80.7,69.3,67.9,64.1,60.2,77,58,43,30.07,30.00,13,8,21,0.00
2013-5-29,87.8,80.7,67.5,70.8,66.9,62.8,88,64,46,30.11,29.98,9,5,14,0.01
2013-5-30,86.6,81.3,72.5,70.4,68.9,65.6,80,67,57,30.09,29.96,11,6,16,0.00
2013-5-31,80.7,73.5,69.8,74.7,70.0,67.3,96,89,80,30.03,29.94,10,4,15,1.02
2013-6-1,69.5,66.6,64.9,67.4,64.6,62.4,96,93,90,30.00,29.79,5,2,10,0.66
2013-6-2,67.4,67.0,66.7,65.7,65.5,65.2,96,95,94,29.94,29.93,2,1,4,0.01
2013-6-3,77.8,72.5,65.1,63.5,60.4,55.7,87,67,49,30.06,29.96,3,2,6,0.00
2013-6-4,81.5,74.0,60.4,63.9,60.9,56.5,87,65,49,30.08,29.98,4,2,8,0.00
2013-6-5,85.9,82.3,77.6,70.7,68.8,66.7,74,64,55,29.98,29.84,4,2,9,0.00
2013-6-6,80.3,73.4,65.2,71.9,68.4,64.3,98,85,67,29.83,29.77,3,1,6,1.03
2013-6-7,80.1,75.6,67.6,70.6,66.6,63.7,90,74,60,29.83,29.78,7,2,10,0.00
2013-6-8,80.8,74.8,66.7,65.9,63.6,56.8,94,70,48,30.00,29.96,5,2,7,0.00
2013-6-10,82.5,75.1,68.1,74.2,68.6,66.0,94,81,60,29.93,29.85,8,4,13,0.09
2013-6-11,89.9,83.0,62.3,78.4,71.3,61.1,97,69,55,30.03,29.94,5,2,8,0.01
2013-6-12,90.8,83.9,74.7,79.1,75.5,71.7,91,77,63,30.04,29.92,8,4,12,0.00
2013-6-13,79.1,79.0,78.9,73.5,73.4,73.3,83,83,83,29.84,29.83,7,6,9,0.00
2013-6-18,85.0,83.9,82.7,69.9,68.1,65.9,65,59,54,29.95,29.91,2,1,7,0.35
2013-6-19,87.2,77.5,69.5,73.8,69.4,66.4,94,77,52,30.06,30.00,2,0,4,0.00
2013-6-20,89.6,80.0,69.4,73.3,69.2,66.6,93,72,51,30.15,30.10,3,2,6,0.00
2013-6-21,82.9,79.7,76.2,72.1,70.2,68.5,78,73,67,30.19,30.18,5,3,9,0.00
2013-6-22,85.8,81.6,75.8,73.3,71.7,70.1,87,72,60,30.19,30.07,5,1,8,0.00
2013-6-23,87.5,79.8,68.6,72.1,69.5,66.8,94,73,57,30.08,30.06,3,1,6,0.00
2013-6-24,85.5,78.9,71.9,76.7,72.9,69.4,92,82,69,30.16,30.05,5,1,7,0.03
2013-6-25,88.8,79.3,69.0,77.4,73.1,67.5,97,82,65,30.08,29.93,6,2,10,0.00
2013-6-26,88.7,80.2,71.7,77.5,73.5,70.3,96,81,65,29.97,29.78,9,4,14,0.00
2013-6-27,91.2,87.4,76.6,78.0,74.9,70.9,92,68,53,29.86,29.82,7,4,11,0.07
2013-6-28,87.8,80.9,72.3,74.5,70.4,66.0,93,72,52,29.81,29.67,5,3,8,0.00
2013-6-29,84.1,80.1,68.8,68.3,65.1,62.1,84,61,52,29.69,29.63,7,4,10,0.00
2013-6-30,74.8,73.7,73.1,65.7,65.0,64.2,77,74,73,29.79,29.78,1,1,6,0.00
2013-7-1,75.0,71.5,66.8,69.6,66.7,62.8,96,85,73,29.87,29.81,7,1,11,0.02
2013-7-2,78.5,72.3,65.8,67.8,65.6,63.3,96,81,63,29.98,29.95,6,3,9,0.00
2013-7-3,82.8,74.2,62.0,69.6,66.2,61.4,98,77,59,30.11,30.05,4,1,8,0.00
2013-7-5,82.9,76.3,67.5,72.3,69.8,66.3,97,81,65,30.12,30.05,3,1,10,0.07
2013-7-6,80.4,74.1,68.0,73.3,69.8,66.4,96,87,77,30.12,30.03,5,2,8,0.54
2013-7-7,87.8,82.6,66.6,75.3,72.0,66.0,98,72,60,30.12,30.05,3,1,5,0.04
2013-7-8,89.3,85.9,79.7,77.5,75.0,71.4,86,70,58,30.16,30.08,4,2,7,0.00
2013-7-9,90.6,86.3,76.2,78.9,76.8,74.7,95,74,63,30.12,30.01,5,3,8,0.01
2013-7-10,90.7,85.1,81.0,81.7,77.2,74.2,84,78,69,30.02,29.87,6,3,10,0.00
2013-7-11,88.6,85.2,77.4,78.3,74.2,66.3,92,70,56,29.96,29.94,4,1,8,0.00
2013-7-12,82.7,78.2,62.6,65.2,61.1,57.3,91,58,45,30.06,29.98,7,4,9,0.00
2013-7-13,81.1,77.6,75.3,66.0,65.3,63.8,73,66,59,30.07,30.04,4,3,6,0.00
2013-7-15,88.9,83.8,79.3,75.7,73.5,72.2,82,72,58,30.25,30.18,4,2,10,0.00
2013-7-16,92.6,89.1,81.5,75.9,73.7,71.2,76,61,50,30.32,30.23,3,1,5,0.00
2013-7-17,93.8,90.0,79.6,78.3,75.6,72.2,89,63,53,30.32,30.18,3,2,5,0.00
2013-7-18,91.5,81.4,72.3,81.1,75.3,69.7,96,82,66,30.18,30.05,6,1,14,0.38
2013-7-19,90.1,83.3,71.8,78.0,74.8,71.2,98,76,62,30.09,29.94,5,2,8,0.00
2013-7-20,88.7,79.2,71.5,77.2,73.3,69.7,97,83,63,29.98,29.84,6,2,10,0.00
2013-7-21,89.6,78.1,71.0,77.8,73.1,69.6,97,86,63,29.98,29.87,7,1,11,0.06
2013-7-22,71.3,71.1,70.9,70.4,70.1,69.7,97,97,96,29.89,29.87,3,2,11,0.92
2013-7-23,87.4,81.4,67.6,76.3,71.9,64.5,92,74,61,29.92,29.79,6,3,12,0.10
2013-7-24,85.9,73.3,64.5,72.7,66.8,62.3,98,81,58,29.99,29.80,5,1,8,0.08
2013-7-25,83.4,71.6,59.8,68.5,63.4,58.7,97,77,51,30.08,29.97,4,0,6,0.00
2013-7-26,82.3,68.5,57.7,69.5,63.0,56.9,98,84,56,30.08,29.98,4,1,7,0.00
2013-7-27,82.3,73.3,63.0,71.3,67.0,59.7,97,82,63,30.00,29.88,5,2,9,0.01
2013-7-28,77.7,66.7,53.3,62.9,57.1,51.3,96,74,43,30.10,29.98,5,1,7,0.00
2013-7-29,81.2,70.8,55.9,67.2,62.0,54.8,98,76,49,30.20,30.09,3,1,5,0.00
2013-7-30,73.9,70.5,64.7,70.8,67.9,62.1,97,92,77,30.19,30.07,5,1,10,0.23
2013-7-31,86.1,73.4,68.0,76.3,70.3,67.0,98,91,68,30.08,29.93,2,1,6,0.00
2013-8-1,86.1,74.2,63.9,72.1,68.1,62.4,98,83,55,30.06,29.97,3,0,6,0.00
2013-8-2,85.5,73.1,59.0,72.1,65.8,58.2,98,80,53,30.06,29.97,3,0,5,0.01
2013-8-3,80.9,72.9,68.5,75.4,70.1,66.8,96,91,78,30.05,29.96,4,1,7,0.10
2013-8-4,68.5,67.7,66.8,62.5,62.1,61.6,85,82,80,30.11,30.10,1,1,2,0.00
2013-8-5,81.0,70.2,63.4,68.6,64.6,60.8,97,84,58,30.10,29.95,3,0,5,0.13
2013-8-6,82.3,74.2,67.4,76.4,71.6,66.5,98,92,79,29.97,29.90,4,1,7,0.24
2013-8-9,89.5,80.1,73.4,79.2,74.5,71.6,95,84,68,30.04,29.95,3,1,5,0.00
2013-8-10,84.8,75.0,70.8,75.1,72.2,69.9,99,91,69,30.13,30.02,4,1,7,0.93
2013-8-11,87.2,78.0,71.6,77.7,74.0,70.7,99,88,68,30.13,30.04,3,0,6,0.05
2013-8-12,85.7,75.8,71.0,77.4,73.4,70.4,99,93,73,30.08,29.92,6,1,11,0.51
2013-8-13,81.5,73.9,67.7,70.4,67.1,63.1,89,80,65,30.04,29.93,2,1,5,0.00
2013-8-14,67.5,65.1,62.3,63.2,61.2,58.6,88,87,86,30.06,30.03,3,2,6,0.00
2013-8-16,76.8,72.6,68.8,68.6,67.6,66.7,94,84,73,30.10,30.06,2,1,4,0.04
2013-8-17,79.5,71.1,65.1,70.1,67.1,64.2,98,88,69,30.15,30.06,3,1,7,0.31
2013-8-18,81.8,70.8,64.1,70.1,66.9,62.9,99,88,64,30.17,30.07,2,0,5,0.01
2013-8-19,85.2,72.6,62.5,72.7,67.2,61.9,99,85,61,30.14,30.04,3,1,6,0.01
2013-8-20,87.8,78.4,69.3,75.7,71.7,67.7,97,81,63,30.11,30.04,4,1,5,0.22
2013-8-21,90.0,78.0,67.7,76.4,71.7,66.8,99,83,53,30.16,30.06,4,1,6,0.01
2013-8-22,90.6,77.9,67.9,76.7,71.8,67.2,99,83,52,30.15,30.02,3,1,6,0.00
2013-8-23,91.5,76.0,68.3,76.7,71.3,67.4,99,87,54,30.09,30.00,5,0,7,0.06
2013-8-24,88.0,76.3,65.2,74.5,69.2,64.3,99,80,56,30.20,30.09,4,1,9,0.01
2013-8-25,88.3,76.6,66.6,74.4,69.5,64.0,96,80,59,30.31,30.20,3,1,7,0.00
2013-8-26,87.5,76.0,65.2,74.5,69.8,64.2,98,83,59,30.28,30.14,5,1,9,0.00
2013-8-27,87.7,76.5,66.5,74.9,70.6,64.7,97,83,62,30.15,30.04,7,2,11,0.01
2013-8-28,91.3,78.9,68.2,74.1,71.4,67.2,98,80,52,30.07,30.00,5,2,10,0.01
2013-8-29,94.5,81.7,70.4,76.7,73.0,68.7,96,77,51,30.03,29.94,5,1,8,0.00
2013-8-30,94.2,81.8,72.3,75.9,73.4,71.2,98,78,50,29.99,29.88,6,2,10,0.00
2013-8-31,95.1,82.2,72.3,76.7,74.0,70.8,96,78,53,29.92,29.80,7,2,13,0.00
2013-9-1,84.3,74.1,66.8,73.3,69.3,65.2,96,86,68,29.93,29.81,10,4,16,1.43
2013-9-4,85.2,74.8,59.8,68.4,63.3,58.9,98,70,46,30.16,30.09,3,1,9,0.01
2013-9-5,85.6,70.6,57.5,67.7,62.8,56.7,98,79,49,30.20,30.13,4,1,7,0.01
2013-9-6,88.5,73.5,59.3,70.0,65.3,58.3,99,78,48,30.19,30.07,6,1,9,0.00
2013-9-7,89.0,75.2,61.5,72.2,67.4,60.3,99,80,47,30.10,29.98,7,2,10,0.01
2013-9-8,90.8,78.6,67.3,75.1,70.3,66.3,98,78,51,30.01,29.92,4,1,7,0.00
2013-9-9,90.4,79.6,72.2,76.6,73.2,69.4,95,82,60,30.04,29.97,5,2,7,0.03
2013-9-10,76.0,73.6,72.0,73.6,72.0,70.8,97,95,92,30.14,30.04,1,0,2,0.00
2013-9-14,73.5,64.2,53.0,54.4,52.5,50.9,94,68,47,30.10,30.06,4,1,6,0.00
2013-9-15,53.1,53.0,53.0,51.0,51.0,51.0,93,93,93,30.10,30.10,0,0,0,0.00
2013-9-16,77.6,77.0,75.2,68.0,66.8,65.6,74,71,67,30.16,30.15,2,1,4,0.01
2013-9-17,84.5,72.5,62.0,67.5,64.3,60.3,95,77,51,30.22,30.09,3,1,7,0.00
2013-9-18,82.2,72.4,64.5,71.4,67.5,62.5,97,85,69,30.16,30.05,8,2,10,0.00
2013-9-19,87.9,75.5,66.1,72.4,69.0,64.6,97,82,59,30.12,29.99,9,2,12,0.00
2013-9-20,83.3,73.1,67.5,72.5,68.5,64.8,97,86,64,30.01,29.81,7,2,10,1.66
2013-9-21,71.7,62.7,55.8,66.8,58.8,52.3,98,88,54,29.91,29.78,3,0,8,0.24
2013-9-22,75.0,62.9,49.4,57.4,52.9,47.6,97,72,47,30.00,29.90,5,2,9,0.00
2013-9-23,78.3,64.1,51.4,60.3,55.5,48.8,93,76,47,30.04,29.95,6,1,10,0.00
2013-9-24,82.8,68.3,56.4,67.8,61.8,55.1,97,82,50,30.00,29.84,6,1,11,0.23
2013-9-25,80.1,69.2,62.0,68.8,65.1,60.8,98,88,63,29.89,29.81,4,1,8,0.03
2013-9-26,75.6,62.0,57.6,68.0,60.2,56.8,99,94,75,30.04,29.88,4,0,5,0.01
2013-9-27,83.0,67.2,51.7,65.3,58.6,50.3,98,77,43,30.14,30.04,4,1,6,0.00
2013-9-28,81.8,68.6,59.2,63.2,59.6,56.6,96,76,45,30.18,30.06,8,2,11,0.00
2013-9-29,64.6,62.4,58.8,62.9,60.2,56.0,98,92,84,30.10,30.01,3,1,5,0.54
2013-9-30,75.5,67.1,62.4,66.0,63.5,61.2,98,89,68,30.04,29.97,7,1,11,0.00
2013-10-1,70.3,65.0,63.2,65.2,62.7,61.7,96,92,83,30.10,30.01,3,0,6,0.00
2013-10-2,78.1,73.6,68.9,73.2,70.6,68.0,97,90,79,30.13,30.05,4,1,7,0.02
2013-10-3,85.5,74.2,66.5,70.4,67.1,63.6,99,81,52,30.09,29.99,7,2,11,0.00
2013-10-4,85.6,73.0,64.1,73.9,68.1,62.9,97,86,66,30.09,30.00,6,1,9,0.00
2013-10-5,87.7,74.0,67.0,73.6,69.7,65.7,97,88,59,30.05,29.87,8,2,14,0.23
2013-10-6,72.9,60.3,51.1,69.4,57.7,46.6,98,91,81,29.98,29.83,7,2,11,1.52
2013-10-7,67.4,55.1,43.4,53.1,48.1,42.6,98,79,52,30.16,29.95,4,1,7,0.01
2013-10-8,70.8,58.8,47.6,52.7,48.7,45.1,91,71,42,30.22,30.12,10,3,14,0.00
2013-10-9,80.0,63.6,49.0,64.3,56.5,46.8,95,79,54,30.20,30.11,5,1,7,0.00
2013-10-10,59.9,59.2,58.4,58.8,57.8,57.0,96,95,94,30.14,30.13,0,0,0,0.00
2013-10-16,58.9,57.2,54.1,56.6,55.3,52.3,96,93,90,30.01,29.97,0,0,3,0.31
2013-10-17,63.2,53.8,44.8,53.4,49.9,43.6,97,87,66,30.04,29.94,6,1,9,0.05
2013-10-18,68.3,55.6,42.2,52.7,48.4,41.4,97,79,52,30.06,29.98,5,1,8,0.00
2013-10-19,54.4,49.1,39.2,51.8,45.6,37.8,96,88,65,30.10,29.91,6,2,12,0.13
2013-10-20,64.7,48.6,35.7,47.5,41.6,34.8,98,80,45,30.15,30.04,7,2,10,0.01
2013-10-21,69.2,53.9,38.2,53.1,46.1,36.8,96,78,47,30.09,29.99,9,2,13,0.03
2013-10-22,61.9,52.4,44.5,50.9,43.6,38.5,92,74,44,30.10,29.88,6,2,12,0.07
2013-10-23,52.4,45.5,38.5,46.6,38.0,34.2,94,76,54,30.16,29.90,7,3,12,0.00
2013-10-24,51.0,43.1,30.6,42.1,36.6,28.0,95,79,55,30.42,30.15,7,1,12,0.00
2013-10-25,51.9,37.5,26.7,33.6,28.6,24.7,94,74,37,30.57,30.37,4,1,6,0.00
2013-10-26,57.4,43.9,28.3,44.7,36.3,26.3,94,76,54,30.37,30.10,11,3,15,0.01
2013-10-27,66.8,52.5,38.9,53.3,47.6,37.6,98,84,58,30.15,30.06,4,0,7,0.00
2013-10-28,67.7,58.4,53.1,60.0,55.4,51.9,98,90,68,30.27,30.09,3,0,5,0.07
2013-10-29,66.0,57.2,48.7,60.8,55.2,48.0,99,93,82,30.32,30.15,5,1,9,0.02
2013-10-30,77.3,68.0,62.0,66.2,61.7,58.2,94,81,67,30.19,30.02,10,3,15,0.00
2013-10-31,68.7,65.2,57.8,66.3,61.7,56.1,95,89,74,30.02,29.53,18,9,24,0.69
2013-11-1,67.5,56.8,49.4,56.8,50.6,44.9,98,81,48,29.86,29.69,8,4,11,0.01
2013-11-2,59.2,48.8,39.9,48.5,43.7,37.3,97,83,57,30.22,29.85,6,1,10,0.01
2013-11-3,57.9,47.4,36.7,40.2,37.5,34.4,94,70,45,30.32,30.25,5,1,8,0.01
2013-11-4,61.3,50.2,37.5,47.9,42.2,35.7,93,75,54,30.39,30.28,8,1,12,0.00
2013-11-5,69.3,58.3,50.8,49.6,45.4,41.0,74,63,46,30.39,30.21,6,2,10,0.00
2013-11-6,68.1,58.4,43.5,60.1,51.9,41.3,97,80,57,30.21,30.05,12,4,19,0.27
2013-11-7,53.7,43.2,32.4,41.5,34.7,28.8,95,75,40,30.39,30.21,5,1,8,0.00
2013-11-8,57.2,42.6,28.5,39.9,31.9,27.1,97,69,36,30.45,30.27,5,1,9,0.00
2013-11-9,62.9,48.1,34.2,40.0,35.2,28.8,82,63,40,30.30,30.17,13,3,17,0.00
2013-11-10,42.9,41.6,40.5,37.3,36.8,36.3,86,83,80,30.28,30.27,0,0,0,0.00
2013-11-11,68.8,56.5,29.2,43.8,34.6,26.0,95,48,21,30.35,30.17,5,1,8,0.00
2013-11-12,52.1,36.4,27.2,44.2,28.7,21.7,90,74,47,30.70,30.25,7,2,14,0.05
2013-11-13,45.8,32.0,22.1,28.4,22.9,19.4,92,71,42,30.76,30.48,3,0,7,0.00
2013-11-14,49.7,36.3,24.1,23.0,21.3,19.4,88,57,31,30.48,30.22,1,0,2,0.00
2013-11-15,51.2,44.0,32.8,49.5,37.7,21.2,97,79,60,30.23,30.09,4,0,7,0.03
2013-11-16,64.5,58.7,51.2,60.9,56.1,49.2,95,91,86,30.11,29.88,9,5,13,0.04
2013-11-17,70.3,64.5,54.9,66.9,61.0,41.3,98,89,60,29.96,29.64,13,7,19,1.69
2013-11-18,60.5,50.4,40.0,45.7,37.3,30.4,84,62,41,30.29,29.95,7,2,10,0.00
2013-11-19,44.8,40.0,35.3,33.0,30.9,29.3,81,70,59,30.29,30.24,4,1,6,0.00
2013-11-20,60.2,41.2,30.0,39.0,33.1,27.3,91,74,43,30.27,30.17,8,2,13,0.00
2013-11-21,66.9,54.7,42.7,55.4,48.0,35.9,95,79,60,30.29,30.17,7,2,11,0.09
2013-11-22,58.7,51.3,42.0,57.2,49.4,39.3,98,93,89,30.42,30.20,5,2,10,0.61
2013-11-23,44.9,36.9,23.4,39.3,27.9,15.7,90,72,34,30.65,30.40,7,3,14,0.00
2013-11-24,34.2,26.6,18.9,19.8,16.8,13.8,82,67,47,30.75,30.51,8,3,11,0.00
2013-11-25,43.1,33.2,28.0,32.6,25.2,18.0,95,74,46,30.52,30.22,9,2,12,0.03
2013-11-26,36.0,34.5,33.6,34.3,33.1,32.0,96,95,86,30.24,30.01,5,2,9,0.08
2013-11-27,26.8,21.2,16.8,14.4,13.6,12.6,88,73,58,30.44,30.35,2,0,4,0.00
2013-11-28,43.7,27.9,14.8,22.4,18.1,11.9,91,69,41,30.54,30.40,9,2,13,0.00
2013-11-29,51.6,34.8,21.6,32.3,25.9,18.8,93,72,44,30.65,30.50,4,1,9,0.00
2013-11-30,57.1,41.3,26.2,35.0,26.7,22.5,91,60,30,30.50,30.25,11,3,14,0.00
2013-12-1,54.0,48.8,42.0,41.1,36.8,29.5,77,63,58,30.25,29.96,5,2,7,0.00
2013-12-2,58.4,50.8,44.5,48.9,45.0,39.6,93,81,69,29.96,29.76,5,1,7,0.00
2013-12-3,62.2,54.1,46.0,54.7,51.3,44.8,98,91,76,29.83,29.74,3,0,6,0.00
2013-12-4,73.9,65.7,56.3,62.8,59.5,54.6,96,81,60,29.84,29.70,14,6,20,0.00
2013-12-5,69.1,47.2,32.4,64.8,44.1,30.6,96,89,81,30.20,29.83,10,4,15,0.67
2013-12-6,32.7,29.8,26.1,31.2,27.9,23.8,94,93,91,30.48,30.13,7,2,10,0.18
2013-12-7,27.0,23.9,20.7,25.0,21.4,17.5,92,90,86,30.64,30.42,7,3,10,0.00
2013-12-8,33.3,31.6,26.9,32.5,30.5,24.9,98,96,92,30.42,30.09,6,2,10,0.03
2013-12-9,32.9,30.8,27.1,32.1,27.5,21.9,97,87,79,30.32,30.15,7,2,9,0.03
2013-12-10,37.5,28.6,23.6,30.0,23.9,20.3,93,83,63,30.45,30.24,8,2,12,0.12
2013-12-11,42.2,29.5,19.0,34.2,24.6,17.3,95,83,62,30.64,30.44,10,2,13,0.20
2013-12-12,23.0,20.7,19.0,18.4,16.6,14.7,86,84,82,30.67,30.64,1,1,3,0.00
2013-12-13,37.6,36.8,36.0,33.6,31.2,28.3,89,80,69,30.17,30.02,4,1,7,0.14
2013-12-14,44.0,38.6,33.5,43.0,36.8,30.8,97,93,88,30.09,29.83,7,4,11,0.40
2013-12-15,33.5,31.3,27.5,31.1,27.9,25.5,93,87,82,30.27,30.09,8,4,12,0.00
2013-12-16,53.5,41.2,27.3,40.5,34.7,25.5,95,78,59,30.23,30.09,11,5,14,0.00
2013-12-17,49.2,40.2,29.0,40.3,33.3,25.5,92,77,52,30.33,30.12,7,2,11,0.00
2013-12-18,51.4,38.0,23.1,30.8,25.2,20.4,95,64,33,30.40,30.17,7,2,11,0.00
2013-12-19,60.4,51.8,41.4,49.1,41.7,29.8,78,68,57,30.20,30.00,14,6,20,0.00
2013-12-20,63.5,59.7,54.3,60.5,55.1,45.5,93,85,68,30.01,29.87,12,7,15,0.17
2013-12-21,73.1,65.8,59.3,66.3,62.0,57.1,97,88,78,29.89,29.51,18,8,23,0.85
2013-12-22,61.6,49.3,36.4,59.8,46.9,33.5,95,91,84,30.21,29.58,13,5,18,0.03
2013-12-23,36.4,31.5,24.4,33.5,27.2,21.6,93,84,73,30.52,30.21,5,2,10,0.43
2013-12-24,28.9,24.6,18.7,23.0,17.2,12.6,88,74,54,30.67,30.51,5,2,10,0.00
2013-12-26,46.8,34.7,25.7,32.7,27.4,23.4,95,76,46,30.49,30.41,3,0,5,0.00
2013-12-27,53.6,35.9,22.4,34.9,27.4,20.4,95,74,45,30.52,30.39,5,1,7,0.00
2013-12-28,46.4,36.3,26.1,37.8,31.6,23.0,95,83,61,30.40,30.01,2,0,3,0.12
2013-12-29,53.1,40.1,29.2,44.3,36.7,25.3,97,88,68,30.22,29.95,9,3,12,0.19
2013-12-30,31.0,27.2,21.5,25.5,23.0,19.8,94,84,75,30.36,30.21,3,1,7,0.00
2013-12-31,43.4,30.6,20.7,30.1,23.9,18.4,93,77,55,30.50,30.34,5,1,7,0.00
2014-1-1,51.1,37.5,23.3,37.2,29.0,21.3,95,73,45,30.36,29.99,8,2,11,0.03
2014-1-2,41.0,28.0,17.4,39.4,24.3,12.0,96,86,76,30.47,29.90,11,5,15,0.08